createdAt,value
2022-11-04T00:00:00.368Z,993.48
2022-11-04T00:01:00.370Z,993.45
2022-11-04T00:02:00.352Z,993.55
2022-11-04T00:03:00.279Z,993.58
2022-11-04T00:04:00.280Z,993.57
2022-11-04T00:05:00.300Z,993.66
2022-11-04T00:06:00.259Z,993.69
2022-11-04T00:07:00.249Z,993.76
2022-11-04T00:08:00.229Z,993.81
2022-11-04T00:09:00.219Z,993.86
2022-11-04T00:10:00.247Z,993.86
2022-11-04T00:11:00.199Z,993.95
2022-11-04T00:12:00.190Z,993.95
2022-11-04T00:13:00.176Z,994.02
2022-11-04T00:14:00.167Z,994.09
2022-11-04T00:15:00.156Z,994.05
2022-11-04T00:16:00.168Z,994.10
2022-11-04T00:17:00.137Z,994.21
2022-11-04T00:18:00.128Z,994.13
2022-11-04T00:19:00.127Z,994.11
2022-11-04T00:20:00.119Z,994.09
2022-11-04T00:21:00.117Z,994.18
2022-11-04T00:22:00.097Z,994.28
2022-11-04T00:23:00.100Z,994.30
2022-11-04T00:24:00.059Z,994.19
2022-11-04T00:25:00.039Z,994.28
2022-11-04T00:26:00.030Z,994.28
2022-11-04T00:27:00.049Z,994.21
2022-11-04T00:28:00.008Z,994.24
2022-11-04T00:28:59.990Z,994.16
2022-11-04T00:30:00.005Z,994.02
2022-11-04T00:30:59.980Z,994.02
2022-11-04T00:31:59.989Z,994.07
2022-11-04T00:32:59.951Z,994.05
2022-11-04T00:33:59.950Z,994.03
2022-11-04T00:34:59.929Z,994.06
2022-11-04T00:35:59.920Z,994.06
2022-11-04T00:36:59.948Z,994.08
2022-11-04T00:37:59.898Z,994.19
2022-11-04T00:38:59.891Z,994.11
2022-11-04T00:39:59.871Z,994.05
2022-11-04T00:40:59.866Z,994.01
2022-11-04T00:41:59.880Z,994.02
2022-11-04T00:42:59.839Z,993.96
2022-11-04T00:43:59.832Z,993.87
2022-11-04T00:44:59.830Z,993.96
2022-11-04T00:45:59.813Z,993.99
2022-11-04T00:46:59.813Z,994.12
2022-11-04T00:47:59.815Z,994.17
2022-11-04T00:48:59.777Z,994.25
2022-11-04T00:49:59.763Z,994.31
2022-11-04T00:50:59.800Z,994.47
2022-11-04T00:51:59.771Z,994.47
2022-11-04T00:52:59.733Z,994.62
2022-11-04T00:53:59.721Z,994.67
2022-11-04T00:54:59.705Z,994.73
2022-11-04T00:55:59.703Z,994.76
2022-11-04T00:56:59.712Z,994.85
2022-11-04T00:57:59.675Z,994.90
2022-11-04T00:58:59.662Z,994.91
2022-11-04T00:59:59.673Z,994.93
2022-11-04T01:00:59.697Z,994.99
2022-11-04T01:01:59.686Z,994.98
2022-11-04T01:02:59.613Z,995.05
2022-11-04T01:03:59.613Z,995.05
2022-11-04T01:04:59.601Z,995.04
2022-11-04T01:05:59.615Z,994.95
2022-11-04T01:06:59.578Z,994.95
2022-11-04T01:07:59.572Z,995.02
2022-11-04T01:08:59.547Z,995.10
2022-11-04T01:09:59.540Z,995.07
2022-11-04T01:10:59.545Z,995.18
2022-11-04T01:11:59.546Z,995.11
2022-11-04T01:12:59.515Z,995.09
2022-11-04T01:13:59.499Z,995.09
2022-11-04T01:14:59.487Z,995.05
2022-11-04T01:15:59.476Z,995.07
2022-11-04T01:16:59.463Z,995.09
2022-11-04T01:17:59.475Z,995.09
2022-11-04T01:18:59.433Z,995.10
2022-11-04T01:19:59.447Z,995.17
2022-11-04T01:20:59.414Z,995.15
2022-11-04T01:21:59.427Z,995.21
2022-11-04T01:22:59.393Z,995.15
2022-11-04T01:23:59.376Z,995.14
2022-11-04T01:24:59.365Z,995.13
2022-11-04T01:25:59.364Z,995.07
2022-11-04T01:26:59.354Z,995.10
2022-11-04T01:27:59.363Z,995.16
2022-11-04T01:28:59.347Z,995.19
2022-11-04T01:29:59.314Z,995.22
2022-11-04T01:30:59.309Z,995.22
2022-11-04T01:31:59.295Z,995.31
2022-11-04T01:32:59.275Z,995.25
2022-11-04T01:33:59.269Z,995.36
2022-11-04T01:34:59.277Z,995.30
2022-11-04T01:35:59.246Z,995.37
2022-11-04T01:36:59.237Z,995.38
2022-11-04T01:37:59.225Z,995.40
2022-11-04T01:38:59.207Z,995.42
2022-11-04T01:39:59.232Z,995.42
2022-11-04T01:40:59.186Z,995.35
2022-11-04T01:41:59.226Z,995.41
2022-11-04T01:42:59.165Z,995.45
2022-11-04T01:43:59.160Z,995.46
2022-11-04T01:44:59.149Z,995.40
2022-11-04T01:45:59.157Z,995.41
2022-11-04T01:46:59.124Z,995.33
2022-11-04T01:47:59.111Z,995.40
2022-11-04T01:48:59.097Z,995.39
2022-11-04T01:49:59.107Z,995.43
2022-11-04T01:50:59.078Z,995.38
2022-11-04T01:51:59.069Z,995.37
2022-11-04T01:52:59.050Z,995.42
2022-11-04T01:53:59.047Z,995.50
2022-11-04T01:54:59.028Z,995.41
2022-11-04T01:55:59.039Z,995.40
2022-11-04T01:56:59.009Z,995.43
2022-11-04T01:57:59.005Z,995.45
2022-11-04T01:58:59.008Z,995.47
2022-11-04T01:59:58.969Z,995.50
2022-11-04T02:00:58.994Z,995.47
2022-11-04T02:01:59.061Z,995.53
2022-11-04T02:02:58.943Z,995.58
2022-11-04T02:03:58.931Z,995.59
2022-11-04T02:04:58.931Z,995.80
2022-11-04T02:05:58.900Z,995.67
2022-11-04T02:06:58.918Z,995.65
2022-11-04T02:07:58.879Z,995.67
2022-11-04T02:08:58.892Z,995.68
2022-11-04T02:09:58.890Z,995.68
2022-11-04T02:10:58.852Z,995.81
2022-11-04T02:11:58.841Z,995.74
2022-11-04T02:12:58.847Z,995.72
2022-11-04T02:13:58.821Z,995.81
2022-11-04T02:14:58.824Z,995.79
2022-11-04T02:15:58.799Z,995.79
2022-11-04T02:16:58.787Z,995.71
2022-11-04T02:17:58.793Z,995.68
2022-11-04T02:18:58.752Z,995.67
2022-11-04T02:19:58.770Z,995.70
2022-11-04T02:20:58.731Z,995.65
2022-11-04T02:21:58.731Z,995.67
2022-11-04T02:22:58.714Z,995.62
2022-11-04T02:23:58.707Z,995.71
2022-11-04T02:24:58.714Z,995.73
2022-11-04T02:25:58.682Z,995.74
2022-11-04T02:26:58.681Z,995.80
2022-11-04T02:27:58.661Z,995.95
2022-11-04T02:28:58.642Z,995.81
2022-11-04T02:29:58.662Z,995.79
2022-11-04T02:30:58.624Z,995.78
2022-11-04T02:31:58.613Z,995.77
2022-11-04T02:32:58.603Z,995.78
2022-11-04T02:33:58.592Z,995.73
2022-11-04T02:34:58.593Z,995.75
2022-11-04T02:35:58.569Z,995.76
2022-11-04T02:36:58.578Z,995.81
2022-11-04T02:37:58.578Z,995.79
2022-11-04T02:38:58.533Z,995.82
2022-11-04T02:39:58.552Z,995.88
2022-11-04T02:40:58.512Z,995.84
2022-11-04T02:41:58.510Z,995.90
2022-11-04T02:42:58.483Z,995.89
2022-11-04T02:43:58.482Z,995.93
2022-11-04T02:44:58.483Z,995.95
2022-11-04T02:45:58.461Z,995.88
2022-11-04T02:46:58.452Z,995.99
2022-11-04T02:47:58.442Z,995.94
2022-11-04T02:48:58.420Z,995.93
2022-11-04T02:49:58.435Z,995.89
2022-11-04T02:50:58.394Z,995.91
2022-11-04T02:51:58.387Z,995.90
2022-11-04T02:52:58.378Z,995.87
2022-11-04T02:53:58.365Z,995.92
2022-11-04T02:54:58.361Z,995.87
2022-11-04T02:55:58.363Z,995.91
2022-11-04T02:56:58.348Z,996.00
2022-11-04T02:57:58.315Z,995.98
2022-11-04T02:58:58.313Z,996.01
2022-11-04T02:59:58.304Z,995.96
2022-11-04T03:00:58.380Z,995.97
2022-11-04T03:01:58.489Z,995.98
2022-11-04T03:02:58.273Z,995.95
2022-11-04T03:03:58.283Z,995.99
2022-11-04T03:04:58.243Z,995.93
2022-11-04T03:05:58.230Z,995.97
2022-11-04T03:06:58.315Z,995.93
2022-11-04T03:07:58.228Z,995.98
2022-11-04T03:08:58.204Z,996.02
2022-11-04T03:09:58.187Z,996.07
2022-11-04T03:10:58.176Z,996.00
2022-11-04T03:11:58.166Z,996.04
2022-11-04T03:12:58.175Z,996.02
2022-11-04T03:13:58.146Z,996.02
2022-11-04T03:14:58.165Z,996.06
2022-11-04T03:15:58.184Z,996.01
2022-11-04T03:16:58.140Z,996.00
2022-11-04T03:17:58.153Z,996.09
2022-11-04T03:18:58.084Z,996.05
2022-11-04T03:19:58.079Z,996.06
2022-11-04T03:20:58.073Z,996.05
2022-11-04T03:21:58.048Z,996.01
2022-11-04T03:22:58.065Z,996.05
2022-11-04T03:23:58.027Z,996.07
2022-11-04T03:24:58.026Z,996.10
2022-11-04T03:25:58.008Z,996.12
2022-11-04T03:26:58.008Z,996.10
2022-11-04T03:27:58.018Z,996.09
2022-11-04T03:28:57.976Z,996.15
2022-11-04T03:29:57.959Z,996.20
2022-11-04T03:30:57.957Z,996.20
2022-11-04T03:31:57.938Z,996.24
2022-11-04T03:32:57.930Z,996.23
2022-11-04T03:33:57.936Z,996.18
2022-11-04T03:34:57.910Z,996.27
2022-11-04T03:35:57.890Z,996.22
2022-11-04T03:36:57.897Z,996.28
2022-11-04T03:37:57.866Z,996.18
2022-11-04T03:38:57.894Z,996.30
2022-11-04T03:39:57.847Z,996.27
2022-11-04T03:40:57.847Z,996.31
2022-11-04T03:41:57.826Z,996.24
2022-11-04T03:42:57.822Z,996.31
2022-11-04T03:43:57.805Z,996.36
2022-11-04T03:44:57.815Z,996.41
2022-11-04T03:45:57.779Z,996.37
2022-11-04T03:46:57.785Z,996.35
2022-11-04T03:47:57.757Z,996.43
2022-11-04T03:48:57.748Z,996.46
2022-11-04T03:49:57.773Z,996.46
2022-11-04T03:50:57.738Z,996.44
2022-11-04T03:51:57.720Z,996.49
2022-11-04T03:52:57.709Z,996.50
2022-11-04T03:53:57.689Z,996.53
2022-11-04T03:54:57.708Z,996.57
2022-11-04T03:55:57.669Z,996.52
2022-11-04T03:56:57.672Z,996.63
2022-11-04T03:57:57.651Z,996.64
2022-11-04T03:58:57.632Z,996.73
2022-11-04T03:59:57.649Z,996.72
2022-11-04T04:00:57.654Z,996.71
2022-11-04T04:01:57.774Z,996.70
2022-11-04T04:02:57.592Z,996.63
2022-11-04T04:03:57.580Z,996.74
2022-11-04T04:04:57.600Z,996.78
2022-11-04T04:05:57.558Z,996.74
2022-11-04T04:06:57.565Z,996.77
2022-11-04T04:07:57.539Z,996.78
2022-11-04T04:08:57.522Z,996.78
2022-11-04T04:09:57.511Z,996.80
2022-11-04T04:10:57.519Z,996.84
2022-11-04T04:11:57.492Z,996.84
2022-11-04T04:12:57.488Z,996.84
2022-11-04T04:13:57.461Z,996.79
2022-11-04T04:14:57.460Z,996.78
2022-11-04T04:15:57.470Z,996.83
2022-11-04T04:16:57.503Z,996.81
2022-11-04T04:17:57.421Z,996.79
2022-11-04T04:18:58.699Z,996.78
2022-11-04T04:19:57.393Z,996.86
2022-11-04T04:20:57.395Z,996.81
2022-11-04T04:21:57.402Z,996.82
2022-11-04T04:22:57.371Z,996.89
2022-11-04T04:23:57.356Z,996.82
2022-11-04T04:24:57.348Z,996.84
2022-11-04T04:26:05.129Z,996.88
2022-11-04T04:26:57.354Z,996.85
2022-11-04T04:27:57.309Z,996.87
2022-11-04T04:28:57.304Z,996.87
2022-11-04T04:29:57.291Z,996.76
2022-11-04T04:31:00.255Z,996.84
2022-11-04T04:31:57.284Z,996.82
2022-11-04T04:32:57.258Z,996.82
2022-11-04T04:33:57.248Z,996.90
2022-11-04T04:34:57.241Z,996.89
2022-11-04T04:35:57.233Z,996.92
2022-11-04T04:36:57.253Z,996.87
2022-11-04T04:37:57.195Z,996.91
2022-11-04T04:38:57.193Z,996.91
2022-11-04T04:39:57.188Z,996.93
2022-11-04T04:41:57.182Z,996.98
2022-11-04T04:42:57.146Z,996.98
2022-11-04T04:43:57.134Z,996.93
2022-11-04T04:44:57.123Z,996.95
2022-11-04T04:45:57.120Z,996.98
2022-11-04T04:46:57.136Z,996.93
2022-11-04T04:47:57.087Z,997.01
2022-11-04T04:48:57.075Z,997.00
2022-11-04T04:49:57.062Z,996.97
2022-11-04T04:50:57.090Z,996.99
2022-11-04T04:51:57.037Z,996.98
2022-11-04T04:52:57.056Z,996.97
2022-11-04T04:53:57.015Z,997.01
2022-11-04T04:54:57.006Z,997.01
2022-11-04T04:55:56.995Z,997.03
2022-11-04T04:56:56.995Z,997.02
2022-11-04T04:57:56.968Z,997.07
2022-11-04T04:58:56.990Z,997.08
2022-11-04T04:59:56.988Z,997.10
2022-11-04T05:00:56.987Z,997.08
2022-11-04T05:01:56.992Z,997.11
2022-11-04T05:02:56.917Z,997.13
2022-11-04T05:03:56.905Z,997.13
2022-11-04T05:04:56.929Z,997.12
2022-11-04T05:05:58.768Z,997.14
2022-11-04T05:06:56.879Z,997.18
2022-11-04T05:07:56.901Z,997.16
2022-11-04T05:08:57.013Z,997.16
2022-11-04T05:09:56.927Z,997.16
2022-11-04T05:10:56.866Z,997.20
2022-11-04T05:11:56.815Z,997.22
2022-11-04T05:12:56.807Z,997.21
2022-11-04T05:13:56.807Z,997.26
2022-11-04T05:14:56.810Z,997.25
2022-11-04T05:15:56.783Z,997.29
2022-11-04T05:16:56.822Z,997.26
2022-11-04T05:17:57.027Z,997.33
2022-11-04T05:18:57.088Z,997.33
2022-11-04T05:19:57.048Z,997.36
2022-11-04T05:20:57.298Z,997.35
2022-11-04T05:21:57.092Z,997.49
2022-11-04T05:22:57.106Z,997.45
2022-11-04T05:23:57.104Z,997.39
2022-11-04T05:24:56.710Z,997.43
2022-11-04T05:25:56.729Z,997.42
2022-11-04T05:26:56.722Z,997.40
2022-11-04T05:27:56.759Z,997.45
2022-11-04T05:28:56.689Z,997.57
2022-11-04T05:29:56.630Z,997.60
2022-11-04T05:30:56.871Z,997.56
2022-11-04T05:31:56.801Z,997.58
2022-11-04T05:32:59.922Z,997.60
2022-11-04T05:33:57.631Z,997.68
2022-11-04T05:34:56.599Z,997.64
2022-11-04T05:35:56.542Z,997.72
2022-11-04T05:36:56.640Z,997.60
2022-11-04T05:37:56.567Z,997.61
2022-11-04T05:38:56.530Z,997.65
2022-11-04T05:39:56.511Z,997.69
2022-11-04T05:40:56.508Z,997.67
2022-11-04T05:41:56.515Z,997.74
2022-11-04T05:42:56.467Z,997.76
2022-11-04T05:43:56.458Z,997.78
2022-11-04T05:44:56.580Z,997.80
2022-11-04T05:45:56.601Z,997.81
2022-11-04T05:46:56.481Z,997.89
2022-11-04T05:47:56.413Z,997.86
2022-11-04T05:48:56.433Z,997.93
2022-11-04T05:49:56.381Z,997.97
2022-11-04T05:50:56.377Z,997.98
2022-11-04T05:51:56.469Z,997.99
2022-11-04T05:52:56.372Z,998.06
2022-11-04T05:53:56.491Z,998.08
2022-11-04T05:54:56.420Z,998.12
2022-11-04T05:55:56.401Z,998.15
2022-11-04T05:56:56.339Z,998.16
2022-11-04T05:57:56.342Z,998.19
2022-11-04T05:58:56.301Z,998.17
2022-11-04T05:59:56.300Z,998.19
2022-11-04T06:00:56.271Z,998.22
2022-11-04T06:01:56.549Z,998.28
2022-11-04T06:02:56.548Z,998.23
2022-11-04T06:03:56.273Z,998.26
2022-11-04T06:04:56.282Z,998.22
2022-11-04T06:05:56.237Z,998.25
2022-11-04T06:06:56.253Z,998.24
2022-11-04T06:07:56.196Z,998.26
2022-11-04T06:08:56.250Z,998.33
2022-11-04T06:09:56.235Z,998.29
2022-11-04T06:10:56.152Z,998.33
2022-11-04T06:11:56.142Z,998.35
2022-11-04T06:12:56.134Z,998.31
2022-11-04T06:13:56.152Z,998.43
2022-11-04T06:14:56.218Z,998.35
2022-11-04T06:15:56.094Z,998.40
2022-11-04T06:16:56.094Z,998.36
2022-11-04T06:17:56.101Z,998.44
2022-11-04T06:18:59.961Z,998.37
2022-11-04T06:19:57.146Z,998.34
2022-11-04T06:20:56.044Z,998.29
2022-11-04T06:21:56.032Z,998.37
2022-11-04T06:22:56.053Z,998.30
2022-11-04T06:23:56.005Z,998.35
2022-11-04T06:24:56.145Z,998.35
2022-11-04T06:25:55.986Z,998.38
2022-11-04T06:26:56.014Z,998.34
2022-11-04T06:27:55.996Z,998.30
2022-11-04T06:28:56.026Z,998.35
2022-11-04T06:29:55.973Z,998.36
2022-11-04T06:30:55.947Z,998.32
2022-11-04T06:31:56.035Z,998.38
2022-11-04T06:32:55.936Z,998.40
2022-11-04T06:33:55.970Z,998.37
2022-11-04T06:34:55.933Z,998.34
2022-11-04T06:35:55.873Z,998.35
2022-11-04T06:36:55.873Z,998.35
2022-11-04T06:37:55.855Z,998.40
2022-11-04T06:39:01.403Z,998.42
2022-11-04T06:39:56.826Z,998.42
2022-11-04T06:40:55.856Z,998.45
2022-11-04T06:41:57.938Z,998.47
2022-11-04T06:42:55.806Z,998.43
2022-11-04T06:43:55.786Z,998.43
2022-11-04T06:44:55.797Z,998.45
2022-11-04T06:45:55.825Z,998.47
2022-11-04T06:46:55.763Z,998.44
2022-11-04T06:47:55.757Z,998.44
2022-11-04T06:48:55.737Z,998.50
2022-11-04T06:49:55.895Z,998.52
2022-11-04T06:50:55.895Z,998.49
2022-11-04T06:51:55.778Z,998.51
2022-11-04T06:52:55.835Z,998.52
2022-11-04T06:53:55.786Z,998.56
2022-11-04T06:54:55.986Z,998.54
2022-11-04T06:55:56.591Z,998.58
2022-11-04T06:56:55.877Z,998.57
2022-11-04T06:57:55.678Z,998.64
2022-11-04T06:58:55.701Z,998.63
2022-11-04T06:59:55.683Z,998.67
2022-11-04T07:00:55.656Z,998.66
2022-11-04T07:01:55.833Z,998.70
2022-11-04T07:02:55.751Z,998.68
2022-11-04T07:03:55.588Z,998.72
2022-11-04T07:04:55.566Z,998.68
2022-11-04T07:05:55.638Z,998.68
2022-11-04T07:06:55.822Z,998.66
2022-11-04T07:07:55.537Z,998.71
2022-11-04T07:08:56.358Z,998.70
2022-11-04T07:09:55.491Z,998.72
2022-11-04T07:10:55.477Z,998.75
2022-11-04T07:11:55.548Z,998.75
2022-11-04T07:12:55.457Z,998.70
2022-11-04T07:13:55.478Z,998.74
2022-11-04T07:14:55.450Z,998.70
2022-11-04T07:15:55.607Z,998.77
2022-11-04T07:16:55.408Z,998.82
2022-11-04T07:17:55.406Z,998.78
2022-11-04T07:18:55.530Z,998.84
2022-11-04T07:19:55.402Z,998.88
2022-11-04T07:20:55.399Z,998.84
2022-11-04T07:21:55.369Z,998.89
2022-11-04T07:22:55.420Z,998.92
2022-11-04T07:23:55.630Z,998.93
2022-11-04T07:24:55.390Z,998.91
2022-11-04T07:25:55.340Z,998.94
2022-11-04T07:26:55.335Z,998.93
2022-11-04T07:27:58.039Z,998.96
2022-11-04T07:28:56.301Z,998.94
2022-11-04T07:29:55.281Z,998.89
2022-11-04T07:30:55.483Z,998.94
2022-11-04T07:31:55.268Z,998.92
2022-11-04T07:32:55.232Z,998.93
2022-11-04T07:33:55.289Z,998.95
2022-11-04T07:34:55.212Z,998.93
2022-11-04T07:35:58.309Z,998.93
2022-11-04T07:36:55.251Z,998.93
2022-11-04T07:37:55.273Z,998.94
2022-11-04T07:38:55.280Z,998.94
2022-11-04T07:39:55.190Z,998.95
2022-11-04T07:40:55.194Z,998.99
2022-11-04T07:41:59.254Z,999.01
2022-11-04T07:42:55.163Z,999.04
2022-11-04T07:43:55.116Z,999.05
2022-11-04T07:44:55.127Z,999.11
2022-11-04T07:45:55.093Z,999.14
2022-11-04T07:46:55.103Z,999.12
2022-11-04T07:47:55.092Z,999.14
2022-11-04T07:48:55.053Z,999.19
2022-11-04T07:49:55.123Z,999.26
2022-11-04T07:50:55.041Z,999.30
2022-11-04T07:51:55.035Z,999.28
2022-11-04T07:52:55.042Z,999.36
2022-11-04T07:53:55.039Z,999.41
2022-11-04T07:54:54.996Z,999.40
2022-11-04T07:55:54.985Z,999.42
2022-11-04T07:56:54.972Z,999.44
2022-11-04T07:57:54.966Z,999.47
2022-11-04T07:58:54.945Z,999.46
2022-11-04T07:59:54.965Z,999.47
2022-11-04T08:00:54.924Z,999.43
2022-11-04T08:01:55.066Z,999.42
2022-11-04T08:02:54.936Z,999.38
2022-11-04T08:03:54.912Z,999.38
2022-11-04T08:04:54.915Z,999.38
2022-11-04T08:05:54.875Z,999.34
2022-11-04T08:06:54.868Z,999.31
2022-11-04T08:07:54.856Z,999.27
2022-11-04T08:08:54.909Z,999.30
2022-11-04T08:09:54.855Z,999.32
2022-11-04T08:10:54.845Z,999.29
2022-11-04T08:11:54.815Z,999.35
2022-11-04T08:12:54.800Z,999.34
2022-11-04T08:13:54.792Z,999.41
2022-11-04T08:14:54.805Z,999.41
2022-11-04T08:15:54.767Z,999.47
2022-11-04T08:16:54.756Z,999.51
2022-11-04T08:17:54.746Z,999.50
2022-11-04T08:18:54.746Z,999.55
2022-11-04T08:19:54.755Z,999.52
2022-11-04T08:20:54.706Z,999.52
2022-11-04T08:21:54.758Z,999.51
2022-11-04T08:22:54.688Z,999.51
2022-11-04T08:23:54.686Z,999.53
2022-11-04T08:24:54.691Z,999.53
2022-11-04T08:25:54.669Z,999.54
2022-11-04T08:26:54.691Z,999.52
2022-11-04T08:28:00.568Z,999.49
2022-11-04T08:28:55.627Z,999.53
2022-11-04T08:29:54.627Z,999.56
2022-11-04T08:30:54.606Z,999.57
2022-11-04T08:31:54.599Z,999.52
2022-11-04T08:32:54.609Z,999.56
2022-11-04T08:33:54.574Z,999.51
2022-11-04T08:34:54.674Z,999.55
2022-11-04T08:35:54.550Z,999.52
2022-11-04T08:36:54.537Z,999.58
2022-11-04T08:37:54.558Z,999.54
2022-11-04T08:38:54.545Z,999.55
2022-11-04T08:39:54.511Z,999.57
2022-11-04T08:40:59.592Z,999.61
2022-11-04T08:41:57.254Z,999.54
2022-11-04T08:42:54.500Z,999.54
2022-11-04T08:43:54.466Z,999.55
2022-11-04T08:44:54.450Z,999.57
2022-11-04T08:45:54.454Z,999.56
2022-11-04T08:46:54.431Z,999.56
2022-11-04T08:47:54.421Z,999.57
2022-11-04T08:48:54.429Z,999.64
2022-11-04T08:49:54.390Z,999.60
2022-11-04T08:50:54.379Z,999.64
2022-11-04T08:51:54.408Z,999.69
2022-11-04T08:52:54.375Z,999.71
2022-11-04T08:53:54.962Z,999.77
2022-11-04T08:54:57.299Z,999.73
2022-11-04T08:55:54.332Z,999.78
2022-11-04T08:56:54.322Z,999.77
2022-11-04T08:57:54.331Z,999.79
2022-11-04T08:58:54.302Z,999.76
2022-11-04T08:59:54.292Z,999.80
2022-11-04T09:00:54.280Z,999.73
2022-11-04T09:01:54.308Z,999.81
2022-11-04T09:02:54.282Z,999.81
2022-11-04T09:03:54.274Z,999.79
2022-11-04T09:04:54.244Z,999.81
2022-11-04T09:05:54.230Z,999.78
2022-11-04T09:06:54.215Z,999.76
2022-11-04T09:07:54.204Z,999.84
2022-11-04T09:08:54.212Z,999.75
2022-11-04T09:09:54.186Z,999.77
2022-11-04T09:10:54.166Z,999.73
2022-11-04T09:11:54.165Z,999.78
2022-11-04T09:12:54.172Z,999.76
2022-11-04T09:13:54.152Z,999.72
2022-11-04T09:14:54.148Z,999.69
2022-11-04T09:15:54.114Z,999.71
2022-11-04T09:16:54.139Z,999.77
2022-11-04T09:17:54.092Z,999.75
2022-11-04T09:18:54.104Z,999.78
2022-11-04T09:19:54.074Z,999.79
2022-11-04T09:20:54.056Z,999.77
2022-11-04T09:21:54.056Z,999.81
2022-11-04T09:22:54.037Z,999.82
2022-11-04T09:23:54.034Z,999.82
2022-11-04T09:24:54.034Z,999.79
2022-11-04T09:25:54.004Z,999.76
2022-11-04T09:26:53.995Z,999.63
2022-11-04T09:27:53.987Z,999.63
2022-11-04T09:28:53.974Z,999.54
2022-11-04T09:29:53.987Z,999.55
2022-11-04T09:30:53.953Z,999.48
2022-11-04T09:31:53.945Z,999.41
2022-11-04T09:32:53.925Z,999.44
2022-11-04T09:33:53.924Z,999.51
2022-11-04T09:34:53.933Z,999.48
2022-11-04T09:35:53.898Z,999.49
2022-11-04T09:36:53.879Z,999.51
2022-11-04T09:37:53.877Z,999.61
2022-11-04T09:38:53.863Z,999.57
2022-11-04T09:39:54.181Z,999.62
2022-11-04T09:40:53.856Z,999.68
2022-11-04T09:41:53.827Z,999.66
2022-11-04T09:42:53.818Z,999.60
2022-11-04T09:43:53.821Z,999.66
2022-11-04T09:45:20.004Z,999.63
2022-11-04T09:45:54.805Z,999.62
2022-11-04T09:46:53.771Z,999.59
2022-11-04T09:47:53.766Z,999.62
2022-11-04T09:48:53.761Z,999.64
2022-11-04T09:49:53.746Z,999.55
2022-11-04T09:50:53.749Z,999.57
2022-11-04T09:51:55.240Z,999.52
2022-11-04T09:52:53.706Z,999.62
2022-11-04T09:53:53.701Z,999.58
2022-11-04T09:54:53.707Z,999.61
2022-11-04T09:55:53.706Z,999.66
2022-11-04T09:56:53.687Z,999.60
2022-11-04T09:57:53.718Z,999.66
2022-11-04T09:58:53.642Z,999.71
2022-11-04T09:59:53.638Z,999.74
2022-11-04T10:00:53.684Z,999.77
2022-11-04T10:01:53.687Z,999.75
2022-11-04T10:02:53.593Z,999.75
2022-11-04T10:03:53.591Z,999.81
2022-11-04T10:04:53.582Z,999.83
2022-11-04T10:05:53.593Z,999.84
2022-11-04T10:06:53.554Z,999.76
2022-11-04T10:07:53.541Z,999.73
2022-11-04T10:08:53.542Z,999.81
2022-11-04T10:09:53.524Z,999.72
2022-11-04T10:10:53.541Z,999.76
2022-11-04T10:11:53.504Z,999.78
2022-11-04T10:12:53.485Z,999.79
2022-11-04T10:13:53.487Z,999.76
2022-11-04T10:14:53.468Z,999.81
2022-11-04T10:15:53.477Z,999.78
2022-11-04T10:16:53.446Z,999.86
2022-11-04T10:17:53.434Z,999.85
2022-11-04T10:18:53.424Z,999.86
2022-11-04T10:19:53.414Z,999.80
2022-11-04T10:20:53.453Z,999.86
2022-11-04T10:21:53.405Z,999.84
2022-11-04T10:22:53.385Z,999.88
2022-11-04T10:23:53.375Z,999.87
2022-11-04T10:24:53.373Z,999.85
2022-11-04T10:25:53.347Z,999.92
2022-11-04T10:26:57.616Z,999.90
2022-11-04T10:27:54.325Z,999.90
2022-11-04T10:28:53.324Z,999.87
2022-11-04T10:29:53.297Z,999.84
2022-11-04T10:30:53.299Z,999.86
2022-11-04T10:31:53.322Z,999.94
2022-11-04T10:32:53.282Z,999.91
2022-11-04T10:33:53.259Z,999.84
2022-11-04T10:34:53.244Z,999.83
2022-11-04T10:35:53.238Z,999.85
2022-11-04T10:36:53.274Z,999.91
2022-11-04T10:37:53.217Z,999.82
2022-11-04T10:38:53.200Z,999.87
2022-11-04T10:39:53.198Z,999.81
2022-11-04T10:40:53.182Z,999.84
2022-11-04T10:41:53.183Z,999.87
2022-11-04T10:42:53.180Z,999.90
2022-11-04T10:43:53.150Z,999.91
2022-11-04T10:44:53.129Z,999.92
2022-11-04T10:45:53.128Z,999.89
2022-11-04T10:46:53.111Z,999.87
2022-11-04T10:47:53.127Z,999.88
2022-11-04T10:48:53.101Z,999.95
2022-11-04T10:50:21.996Z,999.98
2022-11-04T10:50:54.069Z,1000.01
2022-11-04T10:51:53.060Z,1000.02
2022-11-04T10:52:53.102Z,1000.00
2022-11-04T10:53:53.122Z,1000.04
2022-11-04T10:54:53.031Z,1000.09
2022-11-04T10:55:53.022Z,1000.14
2022-11-04T10:56:53.061Z,1000.10
2022-11-04T10:57:52.999Z,1000.05
2022-11-04T10:58:53.001Z,1000.08
2022-11-04T10:59:52.973Z,1000.10
2022-11-04T11:00:53.011Z,1000.16
2022-11-04T11:01:53.109Z,1000.13
2022-11-04T11:02:52.934Z,1000.09
2022-11-04T11:03:52.999Z,1000.12
2022-11-04T11:04:52.915Z,1000.10
2022-11-04T11:05:52.917Z,1000.12
2022-11-04T11:06:52.894Z,1000.14
2022-11-04T11:07:52.894Z,1000.15
2022-11-04T11:08:52.901Z,1000.25
2022-11-04T11:09:54.351Z,1000.30
2022-11-04T11:10:52.862Z,1000.26
2022-11-04T11:11:52.847Z,1000.28
2022-11-04T11:12:52.839Z,1000.32
2022-11-04T11:13:52.853Z,1000.32
2022-11-04T11:14:52.806Z,1000.33
2022-11-04T11:15:52.805Z,1000.33
2022-11-04T11:16:52.797Z,1000.31
2022-11-04T11:17:52.778Z,1000.24
2022-11-04T11:18:52.798Z,1000.22
2022-11-04T11:19:52.756Z,1000.19
2022-11-04T11:20:52.786Z,1000.14
2022-11-04T11:21:52.741Z,1000.11
2022-11-04T11:22:52.732Z,1000.06
2022-11-04T11:23:52.710Z,1000.05
2022-11-04T11:24:52.748Z,1000.05
2022-11-04T11:25:52.709Z,1000.07
2022-11-04T11:26:52.687Z,1000.12
2022-11-04T11:28:00.468Z,1000.14
2022-11-04T11:28:58.429Z,1000.14
2022-11-04T11:29:53.649Z,1000.13
2022-11-04T11:30:52.659Z,1000.16
2022-11-04T11:31:52.622Z,1000.15
2022-11-04T11:32:52.621Z,1000.22
2022-11-04T11:33:52.632Z,1000.19
2022-11-04T11:34:52.591Z,1000.25
2022-11-04T11:35:52.600Z,1000.23
2022-11-04T11:36:52.573Z,1000.22
2022-11-04T11:37:52.573Z,1000.22
2022-11-04T11:38:52.551Z,1000.22
2022-11-04T11:39:52.534Z,1000.22
2022-11-04T11:41:22.863Z,1000.23
2022-11-04T11:41:53.727Z,1000.22
2022-11-04T11:42:52.512Z,1000.19
2022-11-04T11:43:52.505Z,1000.20
2022-11-04T11:44:52.584Z,1000.17
2022-11-04T11:45:52.486Z,1000.16
2022-11-04T11:46:52.505Z,1000.15
2022-11-04T11:47:52.449Z,1000.15
2022-11-04T11:48:52.474Z,1000.19
2022-11-04T11:49:52.429Z,1000.19
2022-11-04T11:50:52.471Z,1000.18
2022-11-04T11:51:52.407Z,1000.14
2022-11-04T11:52:52.405Z,1000.15
2022-11-04T11:53:52.389Z,1000.19
2022-11-04T11:54:52.380Z,1000.22
2022-11-04T11:55:52.409Z,1000.27
2022-11-04T11:57:12.601Z,1000.28
2022-11-04T12:00:59.115Z,1000.31
2022-11-04T12:01:53.394Z,1000.35
2022-11-04T12:02:52.471Z,1000.37
2022-11-04T12:09:53.210Z,1000.26
2022-11-04T12:10:52.647Z,1000.25
2022-11-04T12:11:52.207Z,1000.29
2022-11-04T12:12:52.200Z,1000.25
2022-11-04T12:13:52.191Z,1000.21
2022-11-04T12:14:52.160Z,1000.15
2022-11-04T12:15:52.141Z,1000.13
2022-11-04T12:16:52.142Z,1000.10
2022-11-04T12:17:52.142Z,1000.12
2022-11-04T12:18:52.113Z,1000.09
2022-11-04T12:19:52.104Z,1000.04
2022-11-04T12:20:52.095Z,1000.12
2022-11-04T12:21:52.084Z,1000.13
2022-11-04T12:22:52.073Z,1000.21
2022-11-04T12:23:52.092Z,1000.19
2022-11-04T12:24:52.054Z,1000.20
2022-11-04T12:25:52.044Z,1000.16
2022-11-04T12:26:52.034Z,1000.19
2022-11-04T12:27:52.010Z,1000.20
2022-11-04T12:28:52.024Z,1000.21
2022-11-04T12:29:51.987Z,1000.16
2022-11-04T12:30:52.040Z,1000.25
2022-11-04T12:31:51.966Z,1000.23
2022-11-04T12:32:51.958Z,1000.21
2022-11-04T12:33:51.975Z,1000.27
2022-11-04T12:34:51.941Z,1000.25